Data for 09/14/2010

Time Sea-Level Adjusted Pressure Absolute Pressure Temperature Relative Humidity Dew Point   
(mb) (inHg) (mb) (inHg) (C) (F) (%) (C) (F)
00:05 1021 30.15 850 25.1 15.1 59.3 50 4.7 40.5
00:10 1021 30.15 850 25.1 15.1 59.3 48 4.4 39.9
00:15 1021 30.15 850 25.1 15.1 59.3 49 4.6 40.2
00:20 1021 30.15 850 25.1 14.9 58.7 50 4.6 40.3
00:25 1021 30.15 850 25.1 14.9 58.9 48 4.1 39.3
00:30 1021 30.15 850 25.1 15.6 60 46 4 39.1
00:35 1021 30.15 850 25.1 15.6 60.1 46 4.2 39.5
00:40 1021 30.15 850 25.1 15.5 59.9 45 3.8 38.9
00:45 1021 30.15 850 25.1 15.6 60 46 4 39.3
00:50 1021 30.15 850 25.1 15.5 59.9 46 3.9 39.1
00:55 1021 30.15 850 25.1 15.6 60 46 4 39.2
01:00 1021 30.15 850 25.1 15.5 59.8 46 4 39.2
01:05 1021 30.15 850 25.1 15.4 59.8 47 4.2 39.6
01:10 1021 30.15 850 25.1 15.3 59.5 47 4.2 39.6
01:15 1021 30.15 850 25.1 15.1 59.2 48 4.4 40
01:20 1021 30.15 850 25.1 14.8 58.7 50 4.5 40.2
01:25 1021 30.15 850 25.1 14.5 58.1 51 4.6 40.3
01:30 1021 30.15 850 25.1 14.2 57.5 52 4.6 40.3
01:35 1021 30.15 851 25.13 14 57.1 53 4.5 40.2
01:40 1022 30.18 851 25.13 14 57.2 53 4.6 40.2
01:45 1022 30.18 851 25.13 14.1 57.5 52 4.5 40.2
01:50 1022 30.18 851 25.13 14.3 57.7 52 4.6 40.3
01:55 1021 30.15 851 25.13 14.2 57.6 51 4.4 39.9
02:00 1021 30.15 850 25.1 14.5 58.1 50 4.2 39.6
02:05 1021 30.15 850 25.1 14.5 58.1 50 4.4 40
02:10 1021 30.15 850 25.1 14.3 57.7 52 4.5 40.1
02:15 1021 30.15 850 25.1 14.2 57.6 51 4.3 39.7
02:20 1021 30.15 850 25.1 14.3 57.7 51 4.4 39.9
02:25 1021 30.15 850 25.1 14.1 57.4 52 4.5 40.1
02:30 1021 30.15 850 25.1 14 57.2 52 4.4 39.9
02:35 1021 30.15 850 25.1 13.9 57.1 53 4.6 40.2
02:40 1021 30.15 850 25.1 13.7 56.6 54 4.6 40.3
02:45 1020 30.12 850 25.1 13.7 56.7 53 4.4 40
02:50 1020 30.12 850 25.1 13.7 56.7 53 4.4 39.8
02:55 1020 30.12 850 25.1 13.7 56.7 53 4.5 40
03:00 1020 30.12 849 25.07 13.6 56.6 53 4.4 39.9
03:05 1020 30.12 849 25.07 13.6 56.5 54 4.5 40.1
03:10 1020 30.12 849 25.07 13.6 56.5 53 4.4 39.9
03:15 1020 30.12 849 25.07 13.6 56.5 54 4.5 40.1
03:20 1020 30.12 849 25.07 13.6 56.4 54 4.4 40
03:25 1020 30.12 849 25.07 13.7 56.6 53 4.4 40
03:30 1020 30.12 850 25.1 13.6 56.5 54 4.6 40.3
03:35 1020 30.12 849 25.07 13.5 56.3 55 4.6 40.3
03:40 1020 30.12 849 25.07 13.4 56 55 4.6 40.3
03:45 1020 30.12 849 25.07 13.3 56 55 4.6 40.2
03:50 1020 30.12 849 25.07 13.3 55.9 55 4.6 40.3
03:55 1020 30.12 849 25.07 13.3 55.9 55 4.6 40.3
04:00 1020 30.12 849 25.07 13.3 55.9 55 4.5 40.1
04:05 1020 30.12 849 25.07 13.3 55.9 56 4.7 40.4
04:10 1020 30.12 849 25.07 13.3 55.9 55 4.6 40.2
04:15 1020 30.12 849 25.07 13.3 55.9 55 4.6 40.2
04:20 1020 30.12 850 25.1 13.3 55.9 55 4.6 40.2
04:25 1021 30.15 850 25.1 13.4 56.1 55 4.5 40.2
04:30 1021 30.15 850 25.1 13.4 56.1 55 4.7 40.4
04:35 1020 30.12 850 25.1 13.3 56 56 4.7 40.5
04:40 1020 30.12 850 25.1 13.3 56 57 5 41
04:45 1021 30.15 850 25.1 12.9 55.2 59 5.2 41.4
04:50 1021 30.15 850 25.1 12.4 54.3 63 5.6 42.1
04:55 1021 30.15 850 25.1 12 53.6 65 5.7 42.3
05:00 1021 30.15 850 25.1 11.8 53.2 62 4.8 40.7
05:05 1020 30.12 850 25.1 12 53.6 66 6 42.8
05:10 1020 30.12 849 25.07 11.6 53 65 5.4 41.7
05:15 1020 30.12 849 25.07 12 53.7 62 5.1 41.2
05:20 1020 30.12 849 25.07 12.7 54.8 60 5.1 41.2
05:25 1020 30.12 849 25.07 12.9 55.1 60 5.2 41.4
05:30 1020 30.12 849 25.07 12.9 55.2 60 5.3 41.6
05:35 1020 30.12 849 25.07 12.8 55.1 60 5.3 41.6
05:40 1020 30.12 849 25.07 12.7 54.9 61 5.4 41.8
05:45 1020 30.12 849 25.07 12.7 54.8 61 5.4 41.6
05:50 1020 30.12 849 25.07 12.6 54.8 61 5.3 41.5
05:55 1020 30.12 849 25.07 12.7 54.8 60 5.2 41.4
06:00 1020 30.12 849 25.07 12.7 54.9 61 5.4 41.7
06:05 1019 30.09 849 25.07 12.7 54.8 61 5.4 41.7
06:10 1019 30.09 848 25.04 12.7 54.9 61 5.4 41.8
06:15 1019 30.09 848 25.04 12.7 54.9 61 5.4 41.8
06:20 1019 30.09 848 25.04 12.7 54.9 61 5.4 41.8
06:25 1019 30.09 848 25.04 12.7 54.8 61 5.4 41.8
06:30 1019 30.09 848 25.04 12.7 54.9 61 5.5 41.9
06:35 1019 30.09 848 25.04 12.7 54.9 62 5.6 42.1
06:40 1020 30.12 849 25.07 12.6 54.8 62 5.5 41.9
06:45 1020 30.12 849 25.07 12.7 54.8 62 5.6 42.1
06:50 1020 30.12 849 25.07 12.7 54.9 61 5.5 41.9
06:55 1020 30.12 849 25.07 12.8 55.1 61 5.5 41.9
07:00 1020 30.12 850 25.1 12.8 55.1 62 5.7 42.2
07:05 1020 30.12 849 25.07 12.7 54.9 62 5.6 42
07:10 1020 30.12 849 25.07 12.7 54.8 62 5.6 42.1
07:15 1020 30.12 849 25.07 12.7 54.8 62 5.5 42
07:20 1020 30.12 849 25.07 12.7 54.9 62 5.6 42.1
07:25 1020 30.12 849 25.07 12.7 54.8 62 5.7 42.2
07:30 1021 30.15 850 25.1 12.7 54.9 62 5.6 42.1
07:35 1021 30.15 850 25.1 12.8 55 62 5.7 42.3
07:40 1020 30.12 849 25.07 12.7 54.8 62 5.6 42.2
07:45 1020 30.12 849 25.07 12.7 54.9 62 5.7 42.3
07:50 1019 30.09 848 25.04 12.8 55 61 5.4 41.8
07:55 1019 30.09 848 25.04 12.9 55.2 62 5.8 42.4
08:00 1019 30.09 848 25.04 12.7 54.8 63 5.9 42.6
08:05 1019 30.09 848 25.04 12.6 54.6 63 5.9 42.6
08:10 1019 30.09 848 25.04 12.6 54.8 62 5.6 42.1
08:15 1019 30.09 848 25.04 12.7 54.9 61 5.6 42.1
08:20 1019 30.09 848 25.04 12.9 55.2 61 5.7 42.3
08:25 1019 30.09 848 25.04 12.9 55.1 61 5.6 42.2
08:30 1019 30.09 848 25.04 13 55.5 60 5.5 42
08:35 1019 30.09 848 25.04 13.1 55.7 60 5.5 42
08:40 1019 30.09 848 25.04 13.2 55.8 60 5.7 42.3
08:45 1019 30.09 848 25.04 13.2 55.7 60 5.7 42.3
08:50 1019 30.09 848 25.04 13.2 55.8 59 5.6 42
08:55 1019 30.09 848 25.04 13.3 55.9 60 5.7 42.3
09:00 1019 30.09 848 25.04 13.4 56.2 58 5.4 41.7
09:05 1019 30.09 848 25.04 13.6 56.5 58 5.4 41.8
09:10 1019 30.09 849 25.07 13.6 56.4 58 5.5 42
09:15 1020 30.12 849 25.07 13.6 56.5 58 5.5 41.9
09:20 1020 30.12 849 25.07 13.6 56.5 57 5.4 41.8
09:25 1019 30.09 849 25.07 13.7 56.6 57 5.4 41.8
09:30 1020 30.12 849 25.07 13.8 56.9 57 5.6 42.1
09:35 1020 30.12 849 25.07 13.8 56.8 57 5.5 41.9
09:40 1019 30.09 848 25.04 13.8 56.8 57 5.4 41.8
09:45 1019 30.09 849 25.07 13.8 56.9 57 5.4 41.8
09:50 1020 30.12 849 25.07 13.8 56.9 57 5.6 42
09:55 1020 30.12 849 25.07 13.9 57 59 6 42.8
10:00 1020 30.12 849 25.07 13.3 56 62 6.1 43
10:05 1020 30.12 849 25.07 13.4 56.1 60 5.8 42.4
10:10 1020 30.12 849 25.07 13.7 56.6 60 6.2 43.1
10:15 1020 30.12 849 25.07 13.5 56.2 61 6.2 43.1
10:20 1020 30.12 849 25.07 13.9 57.1 61 6.6 43.8
10:25 1020 30.12 849 25.07 14 57.1 60 6.4 43.6
10:30 1020 30.12 849 25.07 14.5 58 58 6.4 43.5
10:35 1020 30.12 849 25.07 14.7 58.5 59 6.8 44.3
10:40 1020 30.12 849 25.07 14.8 58.7 57 6.4 43.5
10:45 1020 30.12 849 25.07 15.7 60.2 56 7.1 44.7
10:50 1020 30.12 849 25.07 15.3 59.5 56 6.6 43.9
10:55 1020 30.12 849 25.07 15.7 60.3 55 6.9 44.4
11:00 1020 30.12 849 25.07 15.8 60.5 54 6.7 44.1
11:05 1019 30.09 849 25.07 16.4 61.6 53 6.8 44.2
11:10 1019 30.09 849 25.07 17 62.6 50 6.7 44.1
11:15 1019 30.09 849 25.07 17.1 62.8 53 7.5 45.4
11:20 1019 30.09 848 25.04 17.3 63.1 51 7.3 45.1
11:25 1019 30.09 848 25.04 17.5 63.6 49 6.8 44.3
11:30 1019 30.09 848 25.04 18.1 64.5 48 7.1 44.8
11:35 1019 30.09 848 25.04 18 64.4 48 6.9 44.5
11:40 1019 30.09 848 25.04 18.4 65.2 46 6.7 44
11:45 1019 30.09 848 25.04 18.9 66 45 7 44.6
11:50 1019 30.09 848 25.04 19.1 66.4 44 6.5 43.8
11:55 1019 30.09 848 25.04 19.5 67.1 42 6.5 43.7
12:00 1019 30.09 848 25.04 19.6 67.3 43 6.8 44.3
12:05 1019 30.09 848 25.04 19.5 67 42 6.4 43.5
12:10 1019 30.09 848 25.04 18.6 65.5 46 6.8 44.3
12:15 1019 30.09 848 25.04 19.1 66.4 42 6.1 42.9
12:20 1019 30.09 848 25.04 20.1 68.2 40 6.2 43.2
12:25 1019 30.09 848 25.04 20.2 68.3 43 7.2 45
12:30 1018 30.06 848 25.04 19.9 67.9 41 6.4 43.6
12:35 1018 30.06 848 25.04 20.5 68.9 40 6.8 44.2
12:40 1018 30.06 847 25.01 20.4 68.6 41 6.7 44.1
12:45 1018 30.06 847 25.01 19.5 67.1 44 7 44.7
12:50 1018 30.06 847 25.01 19.6 67.3 43 6.7 44.1
12:55 1018 30.06 847 25.01 19.4 66.9 42 6.3 43.3
13:00 1018 30.06 847 25.01 20.2 68.4 39 6.1 43
13:05 1018 30.06 847 25.01 20.4 68.8 41 7 44.6
13:10 1018 30.06 847 25.01 19.7 67.5 41 6.4 43.5
13:15 1018 30.06 847 25.01 20.7 69.3 39 6.3 43.3
13:20 1018 30.06 847 25.01 21.1 70 39 6.9 44.4
13:25 1018 30.06 847 25.01 21.6 70.8 38 6.7 44.1
13:30 1018 30.06 847 25.01 21.3 70.4 39 7.1 44.8
13:35 1018 30.06 847 25.01 21.6 70.8 39 7.2 44.9
13:40 1018 30.06 847 25.01 20.7 69.2 43 7.8 46
13:45 1018 30.06 847 25.01 20.1 68.2 40 6.3 43.3
13:50 1018 30.06 847 25.01 21 69.9 41 7.6 45.6
13:55 1018 30.06 847 25.01 20.5 68.9 41 6.9 44.5
14:00 1018 30.06 847 25.01 20.2 68.4 42 7.2 45
14:05 1018 30.06 847 25.01 20.4 68.7 41 6.9 44.4
14:10 1018 30.06 847 25.01 20.3 68.5 41 6.6 43.9
14:15 1018 30.06 847 25.01 20.3 68.5 41 6.7 44.1
14:20 1018 30.06 847 25.01 20.9 69.5 40 6.9 44.4
14:25 1017 30.03 847 25.01 20.7 69.3 40 6.7 44.1
14:30 1017 30.03 847 25.01 21.3 70.3 38 6.6 43.8
14:35 1017 30.03 847 25.01 21.6 70.9 38 6.9 44.4
14:40 1017 30.03 846 24.98 20.5 68.9 42 7.5 45.4
14:45 1017 30.03 846 24.98 20.3 68.5 42 7 44.6
14:50 1017 30.03 846 24.98 21.2 70.1 37 5.9 42.7
14:55 1017 30.03 846 24.98 21.2 70.1 39 7 44.6
15:00 1017 30.03 846 24.98 21.2 70.2 37 6.1 43
15:05 1017 30.03 846 24.98 21.2 70.1 40 7.2 45
15:10 1017 30.03 846 24.98 20.7 69.2 40 6.7 44.1
15:15 1017 30.03 846 24.98 20.6 69.1 38 5.9 42.6
15:20 1017 30.03 846 24.98 21.5 70.6 35 5.6 42.1
15:25 1017 30.03 846 24.98 22.8 73.1 32 5.7 42.2
15:30 1017 30.03 846 24.98 23.5 74.4 33 6.5 43.6
15:35 1017 30.03 846 24.98 23 73.4 37 7.6 45.6
15:40 1017 30.03 846 24.98 21.9 71.4 37 6.9 44.4
15:45 1017 30.03 846 24.98 21.9 71.5 35 6.2 43.1
15:50 1017 30.03 846 24.98 22.1 71.8 35 6.2 43.2
15:55 1017 30.03 846 24.98 21.7 71 37 6.6 44
16:00 1017 30.03 846 24.98 21.4 70.4 38 6.6 43.9
16:05 1017 30.03 846 24.98 21 69.7 40 7 44.6
16:10 1017 30.03 846 24.98 20.6 69.1 42 7.3 45.1
16:15 1016 30 846 24.98 20.6 69.1 40 6.6 44
16:20 1016 30 846 24.98 20.4 68.8 41 6.7 44.1
16:25 1016 30 846 24.98 20.2 68.4 43 7.3 45.2
16:30 1016 30 846 24.98 20.1 68.2 43 7.4 45.2
16:35 1017 30.03 846 24.98 20 68 43 7.2 45
16:40 1017 30.03 846 24.98 20 68 43 7.1 44.8
16:45 1017 30.03 846 24.98 20.1 68.1 44 7.5 45.5
16:50 1017 30.03 846 24.98 20 68 42 6.8 44.3
16:55 1017 30.03 846 24.98 20.2 68.3 45 7.9 46.2
17:00 1017 30.03 846 24.98 20.4 68.6 42 7.1 44.9
17:05 1017 30.03 846 24.98 20.4 68.7 42 7.1 44.7
17:10 1017 30.03 846 24.98 20.3 68.6 44 7.8 46.1
17:15 1017 30.03 846 24.98 20.1 68.2 44 7.7 45.9
17:20 1017 30.03 846 24.98 20.2 68.4 44 7.8 46
17:25 1017 30.03 846 24.98 20.3 68.5 44 7.7 45.9
17:30 1017 30.03 847 25.01 20 68 46 8.1 46.5
17:35 1017 30.03 847 25.01 19.6 67.3 56 10.6 51
17:40 1017 30.03 847 25.01 18.5 65.2 62 11.2 52.1
17:45 1017 30.03 846 24.98 16.9 62.5 55 7.8 46.1
17:50 1018 30.06 847 25.01 15.8 60.4 55 7 44.5
17:55 1019 30.09 849 25.07 15.6 60 55 6.7 44.1
18:00 1020 30.12 849 25.07 12.8 55.1 75 8.6 47.4
18:05 1019 30.09 848 25.04 11.1 52 78 7.4 45.3
18:10 1020 30.12 849 25.07 11 51.9 81 7.8 46.1
18:15 1020 30.12 849 25.07 11.1 51.9 83 8.3 47
18:20 1020 30.12 849 25.07 11.1 52 84 8.6 47.5
18:25 1020 30.12 849 25.07 11.1 51.9 82 8.1 46.6
18:30 1020 30.12 849 25.07 10.9 51.6 87 8.8 47.9
18:35 1020 30.12 849 25.07 10.9 51.5 85 8.4 47.2
18:40 1020 30.12 849 25.07 10.8 51.4 85 8.4 47.1
18:45 1020 30.12 849 25.07 10.6 51.2 82 7.6 45.7
18:50 1019 30.09 849 25.07 10.6 51.1 85 8.2 46.7
18:55 1019 30.09 849 25.07 10.7 51.2 81 7.6 45.7
19:00 1020 30.12 849 25.07 10.9 51.6 80 7.6 45.7
19:05 1020 30.12 849 25.07 11.2 52.2 78 7.5 45.5
19:10 1020 30.12 849 25.07 11.4 52.5 78 7.8 46
19:15 1020 30.12 849 25.07 11.4 52.5 79 8 46.4
19:20 1020 30.12 850 25.1 11.4 52.4 79 7.9 46.3
19:25 1021 30.15 850 25.1 11.4 52.6 80 8.2 46.8
19:30 1021 30.15 850 25.1 11.4 52.4 82 8.3 47
19:35 1021 30.15 850 25.1 11.3 52.4 81 8.2 46.8
19:40 1021 30.15 851 25.13 11.3 52.3 83 8.4 47.2
19:45 1021 30.15 851 25.13 11.3 52.4 82 8.3 47
19:50 1021 30.15 851 25.13 11.4 52.5 83 8.6 47.5
19:55 1022 30.18 851 25.13 11.4 52.6 83 8.7 47.6
20:00 1022 30.18 851 25.13 11.5 52.6 82 8.5 47.4
20:05 1022 30.18 851 25.13 11.5 52.7 82 8.5 47.3
20:10 1022 30.18 851 25.13 11.5 52.6 82 8.4 47.2
20:15 1022 30.18 851 25.13 11.5 52.7 82 8.6 47.5
20:20 1022 30.18 851 25.13 11.5 52.8 83 8.8 47.8
20:25 1022 30.18 851 25.13 11.5 52.7 84 9 48.2
20:30 1022 30.18 851 25.13 11.3 52.3 85 8.9 48
20:35 1022 30.18 851 25.13 11 51.8 85 8.6 47.5
20:40 1022 30.18 851 25.13 10.9 51.6 87 8.9 48
20:45 1021 30.15 851 25.13 10.6 51.1 89 8.9 48
20:50 1021 30.15 850 25.1 10.3 50.6 90 8.7 47.6
20:55 1021 30.15 850 25.1 10.2 50.4 90 8.7 47.6
21:00 1021 30.15 850 25.1 10.2 50.3 90 8.6 47.6
21:05 1021 30.15 850 25.1 10.1 50.2 90 8.5 47.4
21:10 1020 30.12 850 25.1 10.1 50.2 89 8.4 47.2
21:15 1020 30.12 849 25.07 10.1 50.1 90 8.5 47.3
21:20 1020 30.12 849 25.07 10.1 50.1 88 8.2 46.7
21:25 1020 30.12 849 25.07 10.1 50.1 89 8.3 46.9
21:30 1020 30.12 849 25.07 10 49.9 91 8.5 47.4
21:35 1020 30.12 849 25.07 9.9 49.8 90 8.2 46.8
21:40 1020 30.12 849 25.07 10 50 88 8.1 46.5
21:45 1020 30.12 849 25.07 10.1 50.1 87 8 46.4
21:50 1020 30.12 849 25.07 10.1 50.1 87 8 46.4
21:55 1020 30.12 849 25.07 10 50 87 7.9 46.3
22:00 1020 30.12 850 25.1 10.1 50.1 86 7.8 46.1
22:05 1020 30.12 850 25.1 10.1 50.2 84 7.5 45.5
22:10 1021 30.15 850 25.1 10.3 50.5 86 8 46.5
22:15 1021 30.15 850 25.1 10 50.1 87 8 46.4
22:20 1021 30.15 850 25.1 9.8 49.7 87 7.8 46.1
22:25 1021 30.15 850 25.1 9.7 49.4 88 7.8 46.1
22:30 1021 30.15 850 25.1 9.6 49.2 88 7.7 45.9
22:35 1021 30.15 850 25.1 9.6 49.3 88 7.7 45.8
22:40 1021 30.15 850 25.1 9.6 49.4 87 7.5 45.5
22:45 1021 30.15 850 25.1 9.7 49.5 85 7.4 45.3
22:50 1021 30.15 850 25.1 9.7 49.5 84 7.2 44.9
22:55 1021 30.15 850 25.1 9.7 49.5 86 7.6 45.6
23:00 1021 30.15 851 25.13 9.8 49.6 82 6.9 44.5
23:05 1021 30.15 851 25.13 9.9 49.7 82 7 44.6
23:10 1021 30.15 851 25.13 9.7 49.4 83 7 44.6
23:15 1021 30.15 851 25.13 9.7 49.5 82 6.8 44.2
23:20 1021 30.15 851 25.13 10 49.9 81 6.8 44.2
23:25 1021 30.15 851 25.13 10.1 50.1 81 6.9 44.5
23:30 1021 30.15 851 25.13 10.1 50.1 81 7 44.6
23:35 1021 30.15 851 25.13 10.1 50.1 81 7 44.6
23:40 1021 30.15 851 25.13 10.1 50.2 82 7.3 45.1
23:45 1021 30.15 851 25.13 10.1 50.2 82 7.3 45.1
23:50 1021 30.15 851 25.13 10 50.1 85 7.6 45.6
23:55 1021 30.15 850 25.1 9.9 49.8 83 7.1 44.7
24:00 1021 30.15 850 25.1 9.9 49.8 83 7.1 44.8